CheckWX is a tool to help pilots better visualize weather data.  It is not intended as a substitute for an official pre-flight weather briefing.

11:59:39 UTC

KFME METAR
Tipton Airport
Fort Meade(Odenton), Maryland, USA
Current

27 mins ago

KFME 171133Z AUTO 04005KT 10SM OVC023 01/M08 A3032 RMK AO1
Observed
Nov-17 @ 11:33 UTC
Wind
  • 040° at 5 KTS
Visibility
10 SM
Flight Rules
MVFR
Cloud Levels
  • Overcast at 2,300' AGL
Temperature
C / 34°F
Dewpoint
-8°C / 18°F
Humidity
51%
Altimeter
30.32" Hg
Pressure
1026.72 hPa
Previous

45 mins ago

KFME 171115Z AUTO 03010G15KT 10SM OVC025 01/M08 A3032 RMK AO1
Observed
Nov-17 @ 11:15 UTC
Wind
  • 030° at 10 KTS
  • Gusting to 15 KTS
Visibility
10 SM
Flight Rules
MVFR
Cloud Levels
  • Overcast at 2,500' AGL
Temperature
C / 34°F
Dewpoint
-8°C / 18°F
Humidity
51%
Altimeter
30.32" Hg
Pressure
1026.72 hPa
Previous

1 hour ago

KFME 171054Z AUTO 03007KT 10SM OVC025 01/M08 A3032 RMK AO1
Observed
Nov-17 @ 10:54 UTC
Wind
  • 030° at 7 KTS
Visibility
10 SM
Flight Rules
MVFR
Cloud Levels
  • Overcast at 2,500' AGL
Temperature
C / 34°F
Dewpoint
-8°C / 18°F
Humidity
51%
Altimeter
30.32" Hg
Pressure
1026.72 hPa